createdAt,value
2018-09-06T01:31:38.524Z,1.91
2018-09-06T01:31:39.095Z,2.00
2018-09-06T01:31:39.692Z,2.00
2018-09-06T01:31:40.290Z,1.91
2018-09-06T01:31:40.892Z,2.10
2018-09-06T01:31:41.492Z,2.00
2018-09-06T01:31:42.091Z,2.00
2018-09-06T01:31:42.691Z,2.00
2018-09-06T01:32:36.170Z,2.10
2018-09-06T01:32:36.744Z,2.29
2018-09-06T01:32:37.343Z,2.29
2018-09-06T01:32:37.945Z,1.91
2018-09-06T01:32:38.544Z,2.20
2018-09-06T01:32:39.145Z,2.20
2018-09-06T01:32:39.743Z,2.29
2018-09-06T01:32:40.343Z,1.81
2018-09-06T01:33:34.849Z,2.20
2018-09-06T01:33:35.419Z,2.20
2018-09-06T01:33:36.020Z,2.29
2018-09-06T01:33:36.622Z,2.20
2018-09-06T01:33:37.219Z,2.29
2018-09-06T01:33:37.821Z,2.29
2018-09-06T01:33:38.421Z,2.29
2018-09-06T01:33:39.022Z,2.20
2018-09-06T01:34:32.500Z,2.48
2018-09-06T01:34:33.073Z,2.48
2018-09-06T01:34:33.673Z,2.48
2018-09-06T01:34:34.272Z,2.67
2018-09-06T01:34:34.872Z,2.39
2018-09-06T01:34:35.473Z,2.39
2018-09-06T01:34:36.074Z,2.48
2018-09-06T01:34:36.672Z,2.48
2018-09-06T01:35:30.151Z,2.86
2018-09-06T01:35:30.726Z,2.86
2018-09-06T01:35:31.324Z,2.67
2018-09-06T01:35:31.925Z,2.86
2018-09-06T01:35:32.525Z,2.86
2018-09-06T01:35:33.124Z,2.86
2018-09-06T01:35:33.724Z,2.86
2018-09-06T01:35:34.323Z,3.06
2018-09-06T01:36:27.805Z,3.06
2018-09-06T01:36:28.377Z,2.86
2018-09-06T01:36:28.976Z,2.96
2018-09-06T01:36:29.577Z,2.86
2018-09-06T01:36:30.178Z,2.96
2018-09-06T01:36:30.777Z,2.96
2018-09-06T01:36:31.380Z,2.77
2018-09-06T01:36:31.976Z,2.77
2018-09-06T01:37:26.480Z,2.58
2018-09-06T01:37:27.055Z,2.86
2018-09-06T01:37:27.653Z,2.39
2018-09-06T01:37:28.252Z,2.39
2018-09-06T01:37:28.851Z,2.48
2018-09-06T01:37:29.455Z,2.86
2018-09-06T01:37:30.051Z,2.77
2018-09-06T01:37:30.654Z,2.86
2018-09-06T01:38:24.137Z,3.06
2018-09-06T01:38:24.721Z,2.96
2018-09-06T01:38:25.322Z,2.86
2018-09-06T01:38:25.926Z,2.86
2018-09-06T01:38:26.519Z,2.77
2018-09-06T01:38:27.171Z,2.77
2018-09-06T01:38:27.712Z,2.77
2018-09-06T01:38:28.344Z,2.77
2018-09-06T01:39:21.794Z,2.67
2018-09-06T01:39:22.357Z,2.86
2018-09-06T01:39:22.957Z,2.67
2018-09-06T01:39:23.557Z,2.96
2018-09-06T01:39:24.157Z,3.06
2018-09-06T01:39:24.755Z,2.96
2018-09-06T01:39:25.367Z,2.86
2018-09-06T01:39:25.956Z,2.86
2018-09-06T01:40:20.458Z,2.67
2018-09-06T01:40:21.032Z,2.77
2018-09-06T01:40:21.632Z,2.77
2018-09-06T01:40:22.231Z,3.15
2018-09-06T01:40:22.833Z,2.86
2018-09-06T01:40:23.435Z,2.77
2018-09-06T01:40:24.035Z,2.77
2018-09-06T01:40:24.633Z,2.77
2018-09-06T01:41:19.140Z,2.67
2018-09-06T01:41:19.707Z,2.86
2018-09-06T01:41:20.309Z,2.96
2018-09-06T01:41:20.909Z,3.06
2018-09-06T01:41:21.509Z,3.06
2018-09-06T01:41:22.107Z,2.96
2018-09-06T01:41:22.709Z,2.48
2018-09-06T01:41:23.308Z,2.86
2018-09-06T01:42:17.810Z,2.58
2018-09-06T01:42:18.399Z,2.48
2018-09-06T01:42:18.984Z,2.86
2018-09-06T01:42:19.582Z,2.58
2018-09-06T01:42:20.185Z,2.48
2018-09-06T01:42:20.784Z,2.77
2018-09-06T01:42:21.382Z,2.10
2018-09-06T01:42:21.983Z,2.20
2018-09-06T01:43:15.463Z,2.10
2018-09-06T01:43:16.036Z,2.10
2018-09-06T01:43:16.636Z,1.81
2018-09-06T01:43:17.237Z,1.91
2018-09-06T01:43:17.840Z,1.72
2018-09-06T01:43:18.436Z,1.72
2018-09-06T01:43:19.037Z,2.20
2018-09-06T01:43:19.636Z,1.72
2018-09-06T01:44:14.139Z,1.72
2018-09-06T01:44:14.712Z,2.00
2018-09-06T01:44:15.312Z,1.72
2018-09-06T01:44:15.911Z,1.91
2018-09-06T01:44:16.514Z,1.72
2018-09-06T01:44:17.110Z,1.72
2018-09-06T01:44:17.711Z,1.72
2018-09-06T01:44:18.314Z,1.72
2018-09-06T01:45:12.814Z,1.72
2018-09-06T01:45:13.388Z,1.72
2018-09-06T01:45:13.987Z,1.72
2018-09-06T01:45:14.588Z,1.81
2018-09-06T01:45:15.190Z,2.00
2018-09-06T01:45:15.788Z,1.81
2018-09-06T01:45:16.387Z,1.81
2018-09-06T01:45:16.988Z,1.72
2018-09-06T01:46:11.492Z,1.91
2018-09-06T01:46:12.064Z,2.00
2018-09-06T01:46:12.663Z,2.00
2018-09-06T01:46:13.263Z,2.10
2018-09-06T01:46:13.861Z,2.00
2018-09-06T01:46:14.462Z,1.91
2018-09-06T01:46:15.062Z,2.00
2018-09-06T01:46:15.671Z,2.10
2018-09-06T01:47:09.142Z,2.10
2018-09-06T01:47:09.716Z,2.20
2018-09-06T01:47:10.315Z,2.20
2018-09-06T01:47:10.915Z,2.20
2018-09-06T01:47:11.518Z,2.10
2018-09-06T01:47:12.116Z,2.10
2018-09-06T01:47:12.715Z,2.10
2018-09-06T01:47:13.315Z,2.10
2018-09-06T01:48:06.796Z,2.20
2018-09-06T01:48:07.367Z,2.10
2018-09-06T01:48:07.967Z,1.81
2018-09-06T01:48:08.567Z,2.20
2018-09-06T01:48:09.168Z,2.20
2018-09-06T01:48:09.767Z,2.20
2018-09-06T01:48:10.367Z,2.39
2018-09-06T01:48:10.967Z,2.10
2018-09-06T01:49:04.449Z,2.29
2018-09-06T01:49:05.019Z,2.29
2018-09-06T01:49:05.618Z,2.29
2018-09-06T01:49:06.219Z,2.20
2018-09-06T01:49:06.821Z,2.29
2018-09-06T01:49:07.420Z,2.39
2018-09-06T01:49:08.019Z,2.29
2018-09-06T01:49:08.618Z,2.29
2018-09-06T01:50:03.121Z,2.10
2018-09-06T01:50:03.693Z,2.39
2018-09-06T01:50:04.293Z,2.29
2018-09-06T01:50:04.893Z,2.10
2018-09-06T01:50:05.495Z,2.20
2018-09-06T01:50:06.094Z,2.10
2018-09-06T01:50:06.701Z,2.20
2018-09-06T01:50:07.293Z,2.10
2018-09-06T01:51:01.287Z,2.10
2018-09-06T01:51:01.865Z,2.00
2018-09-06T01:51:02.458Z,2.10
2018-09-06T01:51:03.059Z,2.20
2018-09-06T01:51:03.658Z,2.20
2018-09-06T01:51:04.258Z,2.10
2018-09-06T01:51:04.858Z,2.29
2018-09-06T01:51:58.429Z,2.48
2018-09-06T01:51:58.999Z,2.58
2018-09-06T01:51:59.599Z,2.39
2018-09-06T01:52:00.201Z,2.39
2018-09-06T01:52:00.800Z,2.39
2018-09-06T01:52:01.400Z,2.67
2018-09-06T01:52:02.000Z,2.58
2018-09-06T01:52:02.599Z,2.39
2018-09-06T01:52:57.614Z,2.96
2018-09-06T01:52:58.186Z,2.86
2018-09-06T01:52:58.785Z,2.86
2018-09-06T01:52:59.384Z,2.29
2018-09-06T01:52:59.985Z,2.86
2018-09-06T01:53:00.585Z,2.86
2018-09-06T01:53:01.184Z,2.96
2018-09-06T01:53:54.753Z,2.48
2018-09-06T01:53:55.327Z,2.77
2018-09-06T01:53:55.927Z,3.06
2018-09-06T01:53:56.525Z,2.77
2018-09-06T01:53:57.126Z,2.67
2018-09-06T01:53:57.725Z,2.58
2018-09-06T01:53:58.325Z,2.67
2018-09-06T01:53:58.925Z,2.58
2018-09-06T01:54:52.406Z,3.06
2018-09-06T01:54:52.977Z,3.15
2018-09-06T01:54:53.578Z,3.15
2018-09-06T01:54:54.180Z,3.25
2018-09-06T01:54:54.779Z,3.06
2018-09-06T01:54:55.377Z,3.25
2018-09-06T01:54:55.980Z,3.25
2018-09-06T01:54:56.577Z,3.15
2018-09-06T01:55:50.058Z,3.44
2018-09-06T01:55:50.629Z,3.34
2018-09-06T01:55:51.229Z,3.25
2018-09-06T01:55:51.830Z,3.25
2018-09-06T01:55:52.430Z,3.34
2018-09-06T01:55:53.029Z,3.34
2018-09-06T01:55:53.628Z,3.15
2018-09-06T01:55:54.228Z,3.25
2018-09-06T01:56:48.733Z,4.01
2018-09-06T01:56:49.305Z,4.11
2018-09-06T01:56:49.906Z,3.92
2018-09-06T01:56:50.505Z,3.92
2018-09-06T01:56:51.106Z,4.01
2018-09-06T01:56:51.705Z,4.01
2018-09-06T01:56:52.304Z,4.02
2018-09-06T01:56:52.907Z,4.01
2018-09-06T01:57:47.409Z,4.30
2018-09-06T01:57:47.981Z,4.11
2018-09-06T01:57:48.581Z,4.30
2018-09-06T01:57:49.180Z,4.30
2018-09-06T01:57:49.781Z,4.39
2018-09-06T01:57:50.379Z,4.11
2018-09-06T01:57:50.980Z,4.30
2018-09-06T01:57:51.578Z,4.21
2018-09-06T01:58:46.083Z,4.59
2018-09-06T01:58:46.657Z,4.78
2018-09-06T01:58:47.257Z,4.87
2018-09-06T01:58:47.855Z,4.87
2018-09-06T01:58:48.457Z,4.58
2018-09-06T01:58:49.055Z,4.78
2018-09-06T01:58:49.656Z,4.78
2018-09-06T01:58:50.260Z,4.78
2018-09-06T01:59:44.761Z,5.35
2018-09-06T01:59:45.331Z,5.35
2018-09-06T01:59:45.932Z,5.35
2018-09-06T01:59:46.531Z,5.44
2018-09-06T01:59:47.133Z,5.44
2018-09-06T01:59:47.731Z,5.64
2018-09-06T01:59:48.331Z,5.64
2018-09-06T01:59:48.930Z,5.64
2018-09-06T02:00:42.412Z,5.83
2018-09-06T02:00:42.989Z,5.83
2018-09-06T02:00:43.583Z,5.93
2018-09-06T02:00:44.185Z,5.93
2018-09-06T02:00:44.787Z,6.02
2018-09-06T02:00:45.383Z,6.12
2018-09-06T02:00:45.989Z,6.02
2018-09-06T02:00:46.584Z,5.93
2018-09-06T02:01:41.088Z,6.40
2018-09-06T02:01:41.660Z,6.31
2018-09-06T02:01:42.259Z,6.31
2018-09-06T02:01:42.859Z,6.60
2018-09-06T02:01:43.463Z,6.31
2018-09-06T02:01:44.059Z,6.41
2018-09-06T02:01:44.658Z,6.30
2018-09-06T02:01:45.258Z,6.31
2018-09-06T02:02:38.741Z,6.02
2018-09-06T02:02:39.311Z,6.12
2018-09-06T02:02:39.912Z,6.21
2018-09-06T02:02:40.512Z,6.21
2018-09-06T02:02:41.113Z,6.50
2018-09-06T02:02:41.714Z,6.70
2018-09-06T02:02:42.311Z,6.60
2018-09-06T02:02:42.912Z,6.70
2018-09-06T02:03:37.415Z,7.07
2018-09-06T02:03:37.987Z,7.46
2018-09-06T02:03:38.587Z,7.46
2018-09-06T02:03:39.192Z,7.27
2018-09-06T02:03:39.787Z,7.27
2018-09-06T02:03:40.387Z,7.27
2018-09-06T02:03:40.986Z,7.27
2018-09-06T02:03:41.588Z,7.36
2018-09-06T02:04:36.091Z,8.22
2018-09-06T02:04:36.663Z,8.22
2018-09-06T02:04:37.262Z,8.22
2018-09-06T02:04:37.863Z,8.42
2018-09-06T02:04:38.465Z,8.51
2018-09-06T02:04:39.062Z,8.51
2018-09-06T02:04:39.663Z,8.51
2018-09-06T02:04:40.263Z,8.61
2018-09-06T02:05:33.745Z,8.89
2018-09-06T02:05:34.316Z,8.80
2018-09-06T02:05:34.915Z,8.89
2018-09-06T02:05:35.515Z,8.89
2018-09-06T02:05:36.117Z,9.08
2018-09-06T02:05:36.715Z,8.89
2018-09-06T02:05:37.313Z,9.08
2018-09-06T02:05:37.914Z,9.08
2018-09-06T02:06:31.396Z,8.99
2018-09-06T02:06:31.965Z,9.08
2018-09-06T02:06:32.566Z,9.08
2018-09-06T02:06:33.168Z,9.08
2018-09-06T02:06:33.768Z,8.99
2018-09-06T02:06:34.365Z,9.18
2018-09-06T02:06:34.965Z,8.99
2018-09-06T02:06:35.566Z,8.99
2018-09-06T02:07:30.071Z,10.04
2018-09-06T02:07:30.646Z,9.66
2018-09-06T02:07:31.242Z,9.75
2018-09-06T02:07:31.841Z,10.14
2018-09-06T02:07:32.443Z,9.75
2018-09-06T02:07:33.044Z,9.75
2018-09-06T02:07:33.641Z,9.85
2018-09-06T02:07:34.241Z,9.75
2018-09-06T02:08:28.745Z,9.94
2018-09-06T02:08:29.322Z,10.14
2018-09-06T02:08:29.915Z,9.85
2018-09-06T02:08:30.518Z,9.85
2018-09-06T02:08:31.117Z,9.85
2018-09-06T02:08:31.718Z,9.85
2018-09-06T02:08:32.315Z,9.85
2018-09-06T02:08:32.915Z,10.23
2018-09-06T02:09:27.419Z,10.61
2018-09-06T02:09:27.998Z,10.80
2018-09-06T02:09:28.618Z,10.80
2018-09-06T02:09:29.195Z,10.80
2018-09-06T02:09:29.797Z,10.61
2018-09-06T02:09:30.410Z,10.61
2018-09-06T02:09:31.037Z,10.61
2018-09-06T02:09:31.661Z,10.61
2018-09-06T02:10:25.073Z,11.09
2018-09-06T02:10:25.646Z,11.09
2018-09-06T02:10:26.245Z,11.19
2018-09-06T02:10:26.854Z,11.29
2018-09-06T02:10:27.444Z,11.47
2018-09-06T02:10:28.044Z,11.29
2018-09-06T02:10:28.643Z,11.19
2018-09-06T02:10:29.242Z,11.29
2018-09-06T02:11:23.748Z,11.95
2018-09-06T02:11:24.322Z,11.86
2018-09-06T02:11:24.921Z,11.76
2018-09-06T02:11:25.520Z,11.76
2018-09-06T02:11:26.714Z,11.95
2018-09-06T02:11:26.732Z,11.76
2018-09-06T02:11:27.319Z,12.24
2018-09-06T02:11:27.919Z,11.86
2018-09-06T02:12:21.414Z,11.95
2018-09-06T02:12:21.975Z,11.95
2018-09-06T02:12:22.577Z,12.43
2018-09-06T02:12:23.174Z,12.24
2018-09-06T02:12:23.778Z,12.34
2018-09-06T02:12:24.376Z,12.43
2018-09-06T02:12:24.975Z,12.43
2018-09-06T02:12:25.574Z,12.43
2018-09-06T02:13:20.077Z,13.20
2018-09-06T02:13:20.648Z,13.20
2018-09-06T02:13:21.249Z,13.20
2018-09-06T02:13:21.848Z,13.39
2018-09-06T02:13:22.449Z,13.39
2018-09-06T02:13:23.049Z,13.20
2018-09-06T02:13:23.647Z,13.39
2018-09-06T02:13:24.253Z,13.01
2018-09-06T02:14:18.752Z,14.15
2018-09-06T02:14:19.324Z,14.15
2018-09-06T02:14:19.923Z,13.58
2018-09-06T02:14:20.524Z,13.68
2018-09-06T02:14:21.124Z,14.15
2018-09-06T02:14:21.723Z,13.48
2018-09-06T02:14:22.324Z,13.58
2018-09-06T02:14:22.924Z,14.06
2018-09-06T02:15:17.428Z,13.48
2018-09-06T02:15:17.999Z,13.48
2018-09-06T02:15:18.600Z,13.29
2018-09-06T02:15:19.199Z,13.58
2018-09-06T02:15:19.804Z,13.29
2018-09-06T02:15:20.399Z,13.29
2018-09-06T02:15:20.998Z,13.29
2018-09-06T02:15:21.599Z,13.48
2018-09-06T02:16:15.080Z,13.68
2018-09-06T02:16:15.652Z,13.68
2018-09-06T02:16:16.253Z,13.77
2018-09-06T02:16:16.855Z,13.68
2018-09-06T02:16:17.452Z,13.77
2018-09-06T02:16:18.051Z,13.68
2018-09-06T02:16:18.653Z,13.68
2018-09-06T02:16:19.252Z,14.06
2018-09-06T02:17:12.732Z,13.87
2018-09-06T02:17:13.304Z,13.87
2018-09-06T02:17:13.908Z,14.15
2018-09-06T02:17:14.506Z,13.96
2018-09-06T02:17:15.108Z,13.87
2018-09-06T02:17:15.707Z,13.87
2018-09-06T02:17:16.306Z,13.58
2018-09-06T02:17:16.904Z,13.87
2018-09-06T02:18:11.408Z,13.20
2018-09-06T02:18:11.979Z,13.10
2018-09-06T02:18:12.578Z,13.29
2018-09-06T02:18:13.179Z,13.20
2018-09-06T02:18:13.780Z,13.10
2018-09-06T02:18:14.379Z,13.10
2018-09-06T02:18:14.978Z,13.29
2018-09-06T02:18:15.579Z,13.20
2018-09-06T02:19:09.059Z,13.10
2018-09-06T02:19:09.643Z,12.82
2018-09-06T02:19:10.232Z,13.10
2018-09-06T02:19:10.832Z,12.72
2018-09-06T02:19:11.432Z,13.01
2018-09-06T02:19:12.035Z,12.82
2018-09-06T02:19:12.631Z,13.10
2018-09-06T02:19:13.230Z,13.10
2018-09-06T02:20:07.734Z,12.72
2018-09-06T02:20:08.306Z,12.62
2018-09-06T02:20:08.918Z,12.72
2018-09-06T02:20:09.504Z,12.82
2018-09-06T02:20:10.106Z,12.72
2018-09-06T02:20:10.704Z,12.91
2018-09-06T02:20:11.304Z,12.72
2018-09-06T02:20:11.905Z,12.62
2018-09-06T02:21:05.387Z,13.10
2018-09-06T02:21:05.959Z,13.20
2018-09-06T02:21:06.558Z,13.10
2018-09-06T02:21:07.160Z,13.20
2018-09-06T02:21:07.761Z,13.20
2018-09-06T02:21:08.358Z,12.91
2018-09-06T02:21:08.960Z,13.10
2018-09-06T02:21:09.558Z,13.01
2018-09-06T02:22:03.038Z,12.72
2018-09-06T02:22:03.610Z,12.72
2018-09-06T02:22:04.213Z,12.72
2018-09-06T02:22:04.816Z,12.72
2018-09-06T02:22:05.410Z,12.72
2018-09-06T02:22:06.009Z,12.72
2018-09-06T02:22:06.609Z,12.72
2018-09-06T02:22:07.208Z,12.82
2018-09-06T02:23:01.714Z,12.91
2018-09-06T02:23:02.286Z,12.82
2018-09-06T02:23:02.885Z,12.91
2018-09-06T02:23:03.486Z,13.10
2018-09-06T02:23:04.087Z,13.10
2018-09-06T02:23:04.685Z,13.10
2018-09-06T02:23:05.286Z,13.10
2018-09-06T02:23:05.884Z,12.72
2018-09-06T02:23:59.367Z,11.29
2018-09-06T02:23:59.938Z,11.29
2018-09-06T02:24:00.537Z,11.38
2018-09-06T02:24:01.139Z,11.29
2018-09-06T02:24:01.738Z,11.38
2018-09-06T02:24:02.337Z,11.38
2018-09-06T02:24:02.937Z,11.57
2018-09-06T02:24:03.543Z,11.57
2018-09-06T02:24:58.042Z,9.75
2018-09-06T02:24:58.613Z,10.04
2018-09-06T02:24:59.213Z,9.75
2018-09-06T02:24:59.813Z,10.14
2018-09-06T02:25:00.419Z,10.14
2018-09-06T02:25:01.012Z,10.14
2018-09-06T02:25:01.615Z,10.04
2018-09-06T02:25:02.212Z,10.04
2018-09-06T02:25:55.692Z,9.94
2018-09-06T02:25:56.265Z,10.14
2018-09-06T02:25:56.865Z,9.94
2018-09-06T02:25:57.464Z,10.14
2018-09-06T02:25:58.064Z,10.04
2018-09-06T02:25:58.669Z,10.14
2018-09-06T02:25:59.265Z,9.94
2018-09-06T02:25:59.864Z,9.85
2018-09-06T02:26:53.345Z,9.75
2018-09-06T02:26:53.918Z,9.86
2018-09-06T02:26:54.516Z,10.04
2018-09-06T02:26:55.118Z,10.04
2018-09-06T02:26:55.720Z,9.75
2018-09-06T02:26:56.317Z,10.04
2018-09-06T02:26:56.917Z,10.05
2018-09-06T02:26:57.517Z,10.04
2018-09-06T02:27:50.999Z,10.14
2018-09-06T02:27:51.569Z,9.86
2018-09-06T02:27:52.169Z,9.94
2018-09-06T02:27:52.804Z,10.14
2018-09-06T02:27:53.369Z,10.23
2018-09-06T02:27:53.968Z,10.23
2018-09-06T02:27:54.568Z,10.23
2018-09-06T02:27:55.169Z,9.94
2018-09-06T02:28:48.648Z,11.29
2018-09-06T02:28:49.220Z,11.09
2018-09-06T02:28:49.821Z,11.09
2018-09-06T02:28:50.425Z,11.19
2018-09-06T02:28:51.018Z,11.29
2018-09-06T02:28:51.624Z,11.29
2018-09-06T02:28:52.220Z,11.29
2018-09-06T02:28:52.819Z,11.57
2018-09-06T02:29:46.300Z,12.43
2018-09-06T02:29:46.875Z,12.43
2018-09-06T02:29:47.473Z,12.15
2018-09-06T02:29:48.071Z,12.05
2018-09-06T02:29:48.673Z,12.15
2018-09-06T02:29:49.272Z,12.24
2018-09-06T02:29:49.872Z,12.34
2018-09-06T02:29:50.471Z,12.34
2018-09-06T02:30:44.975Z,12.72
2018-09-06T02:30:45.549Z,12.82
2018-09-06T02:30:46.146Z,12.82
2018-09-06T02:30:46.747Z,12.91
2018-09-06T02:30:47.348Z,12.91
2018-09-06T02:30:47.946Z,12.82
2018-09-06T02:30:48.547Z,12.72
2018-09-06T02:30:49.147Z,12.62
2018-09-06T02:31:42.627Z,13.87
2018-09-06T02:31:43.200Z,13.87
2018-09-06T02:31:43.800Z,13.87
2018-09-06T02:31:44.401Z,14.15
2018-09-06T02:31:45.000Z,13.96
2018-09-06T02:31:45.600Z,14.25
2018-09-06T02:31:46.203Z,14.54
2018-09-06T02:31:46.802Z,14.44
2018-09-06T02:32:41.303Z,15.01
2018-09-06T02:32:41.875Z,15.30
2018-09-06T02:32:42.475Z,15.40
2018-09-06T02:32:43.074Z,15.49
2018-09-06T02:32:43.676Z,15.30
2018-09-06T02:32:44.275Z,15.40
2018-09-06T02:32:44.874Z,15.30
2018-09-06T02:32:45.473Z,15.40
2018-09-06T02:33:38.990Z,16.35
2018-09-06T02:33:39.527Z,16.26
2018-09-06T02:33:40.127Z,16.26
2018-09-06T02:33:40.732Z,16.35
2018-09-06T02:33:41.327Z,16.26
2018-09-06T02:33:41.928Z,16.55
2018-09-06T02:33:42.527Z,16.55
2018-09-06T02:33:43.128Z,16.55
2018-09-06T02:34:36.611Z,16.93
2018-09-06T02:34:37.180Z,16.93
2018-09-06T02:34:37.782Z,16.64
2018-09-06T02:34:38.381Z,16.83
2018-09-06T02:34:38.980Z,16.83
2018-09-06T02:34:39.581Z,16.93
2018-09-06T02:34:40.180Z,16.64
2018-09-06T02:34:40.779Z,16.83
2018-09-06T02:35:34.260Z,16.74
2018-09-06T02:35:34.831Z,16.83
2018-09-06T02:35:35.432Z,16.64
2018-09-06T02:35:36.031Z,16.93
2018-09-06T02:35:36.632Z,16.93
2018-09-06T02:35:37.236Z,16.74
2018-09-06T02:35:37.830Z,16.93
2018-09-06T02:35:38.429Z,17.12
2018-09-06T02:36:32.933Z,17.02
2018-09-06T02:36:33.505Z,17.02
2018-09-06T02:36:34.105Z,17.02
2018-09-06T02:36:34.707Z,16.74
2018-09-06T02:36:35.309Z,16.83
2018-09-06T02:36:35.905Z,16.83
2018-09-06T02:36:36.505Z,17.31
2018-09-06T02:36:37.105Z,16.64
2018-09-06T02:37:30.586Z,17.02
2018-09-06T02:37:31.158Z,17.02
2018-09-06T02:37:31.760Z,16.93
2018-09-06T02:37:32.359Z,17.41
2018-09-06T02:37:32.959Z,17.21
2018-09-06T02:37:33.559Z,17.21
2018-09-06T02:37:34.165Z,17.12
2018-09-06T02:37:34.759Z,17.21
2018-09-06T02:38:29.261Z,17.60
2018-09-06T02:38:29.833Z,17.60
2018-09-06T02:38:30.439Z,17.69
2018-09-06T02:38:31.032Z,17.12
2018-09-06T02:38:31.635Z,17.69
2018-09-06T02:38:32.234Z,17.21
2018-09-06T02:38:32.832Z,17.60
2018-09-06T02:38:33.432Z,17.21
2018-09-06T02:39:27.938Z,16.93
2018-09-06T02:39:28.509Z,17.41
2018-09-06T02:39:29.109Z,17.12
2018-09-06T02:39:29.708Z,17.50
2018-09-06T02:39:30.309Z,16.93
2018-09-06T02:39:30.910Z,16.93
2018-09-06T02:39:31.510Z,16.83
2018-09-06T02:39:32.109Z,17.50
2018-09-06T02:40:25.589Z,18.37
2018-09-06T02:40:26.161Z,18.27
2018-09-06T02:40:26.762Z,18.27
2018-09-06T02:40:27.363Z,18.37
2018-09-06T02:40:27.961Z,18.07
2018-09-06T02:40:28.561Z,18.27
2018-09-06T02:40:29.161Z,18.17
2018-09-06T02:40:29.760Z,18.17
2018-09-06T02:41:24.265Z,18.55
2018-09-06T02:41:24.836Z,18.55
2018-09-06T02:41:25.439Z,18.55
2018-09-06T02:41:26.035Z,18.37
2018-09-06T02:41:26.636Z,18.55
2018-09-06T02:41:27.234Z,18.55
2018-09-06T02:41:27.834Z,18.46
2018-09-06T02:41:28.436Z,18.55
2018-09-06T02:42:22.938Z,18.65
2018-09-06T02:42:23.511Z,19.03
2018-09-06T02:42:24.111Z,18.94
2018-09-06T02:42:24.711Z,19.13
2018-09-06T02:42:25.313Z,19.03
2018-09-06T02:42:25.912Z,19.03
2018-09-06T02:42:26.510Z,19.13
2018-09-06T02:42:27.110Z,18.84
2018-09-06T02:43:21.616Z,19.80
2018-09-06T02:43:22.187Z,19.60
2018-09-06T02:43:22.795Z,19.80
2018-09-06T02:43:23.387Z,19.60
2018-09-06T02:43:23.987Z,19.80
2018-09-06T02:43:24.586Z,19.60
2018-09-06T02:43:25.188Z,19.32
2018-09-06T02:43:25.789Z,19.42
2018-09-06T02:44:20.289Z,20.85
2018-09-06T02:44:20.871Z,20.85
2018-09-06T02:44:21.464Z,20.85
2018-09-06T02:44:22.064Z,20.95
2018-09-06T02:44:22.662Z,21.14
2018-09-06T02:44:23.263Z,20.85
2018-09-06T02:44:23.865Z,20.95
2018-09-06T02:44:24.462Z,20.95
2018-09-06T02:45:17.943Z,20.95
2018-09-06T02:45:18.516Z,21.04
2018-09-06T02:45:19.124Z,20.85
2018-09-06T02:45:19.716Z,20.75
2018-09-06T02:45:20.315Z,21.04
2018-09-06T02:45:20.919Z,21.04
2018-09-06T02:45:21.517Z,20.85
2018-09-06T02:45:22.115Z,21.04
2018-09-06T02:46:15.594Z,21.04
2018-09-06T02:46:16.168Z,20.95
2018-09-06T02:46:16.767Z,20.75
2018-09-06T02:46:17.374Z,21.04
2018-09-06T02:46:17.968Z,21.04
2018-09-06T02:46:18.568Z,21.04
2018-09-06T02:46:19.169Z,20.85
2018-09-06T02:46:19.771Z,21.04
2018-09-06T02:47:14.270Z,21.33
2018-09-06T02:47:14.843Z,21.42
2018-09-06T02:47:15.441Z,21.52
2018-09-06T02:47:16.042Z,21.42
2018-09-06T02:47:16.643Z,21.71
2018-09-06T02:47:17.243Z,21.42
2018-09-06T02:47:17.842Z,21.71
2018-09-06T02:47:18.441Z,21.52
2018-09-06T02:48:12.949Z,21.52
2018-09-06T02:48:13.531Z,21.52
2018-09-06T02:48:14.118Z,21.81
2018-09-06T02:48:14.717Z,21.52
2018-09-06T02:48:15.317Z,21.42
2018-09-06T02:48:15.916Z,21.61
2018-09-06T02:48:16.519Z,21.61
2018-09-06T02:48:17.117Z,21.81
2018-09-06T02:49:11.622Z,21.90
2018-09-06T02:49:12.194Z,21.61
2018-09-06T02:49:12.796Z,21.90
2018-09-06T02:49:13.394Z,21.71
2018-09-06T02:49:13.995Z,21.71
2018-09-06T02:49:14.593Z,21.71
2018-09-06T02:49:15.194Z,22.00
2018-09-06T02:49:15.794Z,21.61
2018-09-06T02:50:10.295Z,21.81
2018-09-06T02:50:10.870Z,21.61
2018-09-06T02:50:11.470Z,21.61
2018-09-06T02:50:12.069Z,21.81
2018-09-06T02:50:12.670Z,21.81
2018-09-06T02:50:13.269Z,21.90
2018-09-06T02:50:13.869Z,21.81
2018-09-06T02:50:14.469Z,21.90
2018-09-06T02:51:07.952Z,21.04
2018-09-06T02:51:08.522Z,21.04
2018-09-06T02:51:09.121Z,20.95
2018-09-06T02:51:09.724Z,21.23
2018-09-06T02:51:10.321Z,21.04
2018-09-06T02:51:10.920Z,21.04
2018-09-06T02:51:11.522Z,21.14
2018-09-06T02:51:12.123Z,21.04
2018-09-06T02:52:05.602Z,21.42
2018-09-06T02:52:06.173Z,21.42
2018-09-06T02:52:06.773Z,21.52
2018-09-06T02:52:07.373Z,21.52
2018-09-06T02:52:07.974Z,21.42
2018-09-06T02:52:08.573Z,21.33
2018-09-06T02:52:09.172Z,21.42
2018-09-06T02:52:09.773Z,21.42
2018-09-06T02:53:04.276Z,22.38
2018-09-06T02:53:04.850Z,22.76
2018-09-06T02:53:05.447Z,22.38
2018-09-06T02:53:06.048Z,22.38
2018-09-06T02:53:06.649Z,22.38
2018-09-06T02:53:07.248Z,22.38
2018-09-06T02:53:07.847Z,22.38
2018-09-06T02:53:08.448Z,22.47
2018-09-06T02:54:02.034Z,22.00
2018-09-06T02:54:02.536Z,21.90
2018-09-06T02:54:03.190Z,22.09
2018-09-06T02:54:03.741Z,22.00
2018-09-06T02:54:04.301Z,22.00
2018-09-06T02:54:04.901Z,21.90
2018-09-06T02:54:05.503Z,21.90
2018-09-06T02:54:06.101Z,21.90
2018-09-06T02:54:59.580Z,21.81
2018-09-06T02:55:00.153Z,21.81
2018-09-06T02:55:00.755Z,22.09
2018-09-06T02:55:01.353Z,22.00
2018-09-06T02:55:01.955Z,22.00
2018-09-06T02:55:02.552Z,21.81
2018-09-06T02:55:03.152Z,22.28
2018-09-06T02:55:03.755Z,21.81
2018-09-06T02:55:57.232Z,22.00
2018-09-06T02:55:57.807Z,22.00
2018-09-06T02:55:58.404Z,22.00
2018-09-06T02:55:59.005Z,22.19
2018-09-06T02:55:59.606Z,22.19
2018-09-06T02:56:00.209Z,22.19
2018-09-06T02:56:00.810Z,22.00
2018-09-06T02:56:01.404Z,22.19
2018-09-06T02:56:55.906Z,21.90
2018-09-06T02:56:56.478Z,21.61
2018-09-06T02:56:57.080Z,21.81
2018-09-06T02:56:57.679Z,21.90
2018-09-06T02:56:58.279Z,21.71
2018-09-06T02:56:58.879Z,21.90
2018-09-06T02:56:59.481Z,21.90
2018-09-06T02:57:00.079Z,21.71
2018-09-06T02:57:54.582Z,22.19
2018-09-06T02:57:55.157Z,21.90
2018-09-06T02:57:55.754Z,22.19
2018-09-06T02:57:56.357Z,22.19
2018-09-06T02:57:56.956Z,22.19
2018-09-06T02:57:57.557Z,22.19
2018-09-06T02:57:58.171Z,22.19
2018-09-06T02:57:58.754Z,22.28
2018-09-06T02:58:52.234Z,21.81
2018-09-06T02:58:52.814Z,21.81
2018-09-06T02:58:53.406Z,22.00
2018-09-06T02:58:54.015Z,21.81
2018-09-06T02:58:54.610Z,22.00
2018-09-06T02:58:55.210Z,22.09
2018-09-06T02:58:55.808Z,22.09
2018-09-06T02:58:56.407Z,21.81
2018-09-06T02:59:49.887Z,22.28
2018-09-06T02:59:50.459Z,22.28
2018-09-06T02:59:51.058Z,22.28
2018-09-06T02:59:51.658Z,22.19
2018-09-06T02:59:52.259Z,22.28
2018-09-06T02:59:52.860Z,22.38
2018-09-06T02:59:53.458Z,22.47
2018-09-06T02:59:54.059Z,22.47
2018-09-06T03:00:48.563Z,21.61
2018-09-06T03:00:49.135Z,21.81
2018-09-06T03:00:49.734Z,21.90
2018-09-06T03:00:50.333Z,21.90
2018-09-06T03:00:50.936Z,21.81
2018-09-06T03:00:51.534Z,21.81
2018-09-06T03:00:52.133Z,21.61
2018-09-06T03:00:52.733Z,22.19
2018-09-06T03:01:47.238Z,21.81
2018-09-06T03:01:47.809Z,22.28
2018-09-06T03:01:48.406Z,22.09
2018-09-06T03:01:49.011Z,22.47
2018-09-06T03:01:49.609Z,22.19
2018-09-06T03:01:50.208Z,22.19
2018-09-06T03:01:50.807Z,21.90
2018-09-06T03:01:51.407Z,21.81
2018-09-06T03:02:45.913Z,21.81
2018-09-06T03:02:46.485Z,21.81
2018-09-06T03:02:47.086Z,21.61
2018-09-06T03:02:47.684Z,21.81
2018-09-06T03:02:48.286Z,21.90
2018-09-06T03:02:48.885Z,21.81
2018-09-06T03:02:49.484Z,21.61
2018-09-06T03:02:50.084Z,22.28
2018-09-06T03:03:43.565Z,22.28
2018-09-06T03:03:44.138Z,22.38
2018-09-06T03:03:44.739Z,22.28
2018-09-06T03:03:45.342Z,22.38
2018-09-06T03:03:45.937Z,22.28
2018-09-06T03:03:46.537Z,22.38
2018-09-06T03:03:47.136Z,22.38
2018-09-06T03:03:47.737Z,22.47
2018-09-06T03:04:41.218Z,22.57
2018-09-06T03:04:41.791Z,22.76
2018-09-06T03:04:42.390Z,22.67
2018-09-06T03:04:42.991Z,22.67
2018-09-06T03:04:43.592Z,22.67
2018-09-06T03:04:44.192Z,22.76
2018-09-06T03:04:44.791Z,22.76
2018-09-06T03:04:45.389Z,22.76
2018-09-06T03:05:39.892Z,23.72
2018-09-06T03:05:40.465Z,23.82
2018-09-06T03:05:41.064Z,23.72
2018-09-06T03:05:41.669Z,24.01
2018-09-06T03:05:42.265Z,24.01
2018-09-06T03:05:42.865Z,23.82
2018-09-06T03:05:43.464Z,23.72
2018-09-06T03:05:44.064Z,23.62
2018-09-06T03:06:37.545Z,22.76